createdAt,value
2019-05-12T00:00:10.233Z,99.08
2019-05-12T00:01:10.264Z,98.67
2019-05-12T00:02:10.233Z,98.87
2019-05-12T00:03:10.209Z,98.36
2019-05-12T00:04:10.186Z,98.42
2019-05-12T00:05:10.189Z,98.36
2019-05-12T00:06:10.173Z,99.08
2019-05-12T00:07:10.228Z,98.46
2019-05-12T00:08:10.216Z,98.57
2019-05-12T00:09:10.134Z,98.57
2019-05-12T00:10:10.125Z,99.28
2019-05-12T00:11:10.126Z,98.97
2019-05-12T00:12:10.107Z,99.08
2019-05-12T00:13:10.106Z,98.97
2019-05-12T00:14:10.076Z,98.87
2019-05-12T00:15:10.069Z,98.57
2019-05-12T00:16:10.053Z,99.28
2019-05-12T00:17:10.042Z,98.71
2019-05-12T00:18:10.045Z,98.92
2019-05-12T00:19:10.036Z,99.02
2019-05-12T00:20:10.014Z,99.02
2019-05-12T00:21:10.007Z,99.43
2019-05-12T00:22:09.989Z,99.54
2019-05-12T00:23:24.024Z,99.33
2019-05-12T00:24:10.977Z,99.33
2019-05-12T00:25:23.403Z,99.12
2019-05-12T00:26:09.948Z,99.38
2019-05-12T00:27:09.937Z,99.28
2019-05-12T00:28:09.935Z,98.97
2019-05-12T00:29:09.978Z,99.28
2019-05-12T00:30:10.866Z,99.59
2019-05-12T00:31:10.381Z,99.59
2019-05-12T00:32:09.882Z,99.59
2019-05-12T00:33:09.876Z,99.49
2019-05-12T00:34:09.859Z,99.59
2019-05-12T00:35:09.883Z,99.59
2019-05-12T00:36:09.836Z,99.38
2019-05-12T00:37:09.836Z,99.90
2019-05-12T00:38:09.810Z,99.79
2019-05-12T00:39:09.802Z,99.99
2019-05-12T00:40:09.786Z,99.99
2019-05-12T00:41:09.869Z,99.75
2019-05-12T00:42:09.766Z,99.95
2019-05-12T00:43:09.760Z,99.95
2019-05-12T00:44:09.747Z,99.95
2019-05-12T00:45:09.735Z,99.99
2019-05-12T00:46:09.724Z,99.99
2019-05-12T00:47:09.756Z,99.99
2019-05-12T00:48:09.849Z,99.99
2019-05-12T00:49:09.716Z,99.99
2019-05-12T00:50:09.677Z,99.99
2019-05-12T00:51:09.670Z,99.99
2019-05-12T00:52:09.677Z,99.99
2019-05-12T00:53:09.884Z,99.99
2019-05-12T00:54:09.666Z,99.99
2019-05-12T00:55:09.621Z,99.99
2019-05-12T00:56:22.577Z,99.99
2019-05-12T00:57:09.599Z,99.99
2019-05-12T00:58:09.622Z,99.99
2019-05-12T00:59:09.590Z,99.96
2019-05-12T01:00:09.577Z,99.99
2019-05-12T01:01:09.567Z,99.99
2019-05-12T01:02:10.390Z,99.99
2019-05-12T01:03:09.535Z,99.99
2019-05-12T01:04:09.545Z,99.91
2019-05-12T01:05:09.512Z,99.99
2019-05-12T01:06:09.506Z,99.99
2019-05-12T01:07:09.493Z,99.99
2019-05-12T01:08:09.835Z,99.99
2019-05-12T01:09:09.469Z,99.99
2019-05-12T01:10:09.466Z,99.99
2019-05-12T01:11:09.444Z,99.98
2019-05-12T01:12:09.436Z,99.87
2019-05-12T01:13:09.441Z,99.99
2019-05-12T01:14:09.485Z,99.77
2019-05-12T01:15:09.424Z,99.36
2019-05-12T01:16:09.385Z,99.61
2019-05-12T01:17:09.380Z,99.61
2019-05-12T01:18:09.841Z,99.26
2019-05-12T01:19:09.363Z,99.56
2019-05-12T01:20:09.344Z,99.61
2019-05-12T01:21:09.333Z,99.66
2019-05-12T01:22:09.323Z,99.66
2019-05-12T01:23:09.318Z,99.56
2019-05-12T01:24:09.296Z,99.56
2019-05-12T01:25:09.287Z,99.66
2019-05-12T01:26:09.275Z,99.87
2019-05-12T01:27:22.290Z,99.77
2019-05-12T01:28:09.296Z,99.46
2019-05-12T01:29:09.237Z,99.46
2019-05-12T01:30:09.239Z,99.77
2019-05-12T01:31:09.242Z,99.87
2019-05-12T01:32:09.215Z,99.99
2019-05-12T01:33:09.286Z,99.36
2019-05-12T01:34:09.195Z,99.26
2019-05-12T01:35:09.177Z,99.56
2019-05-12T01:36:09.239Z,99.56
2019-05-12T01:37:09.214Z,99.77
2019-05-12T01:38:09.915Z,99.87
2019-05-12T01:39:09.170Z,99.87
2019-05-12T01:40:09.285Z,99.46
2019-05-12T01:41:09.112Z,99.41
2019-05-12T01:42:09.185Z,99.36
2019-05-12T01:43:09.238Z,99.26
2019-05-12T01:44:09.095Z,99.46
2019-05-12T01:45:09.963Z,99.66
2019-05-12T01:46:09.051Z,99.36
2019-05-12T01:47:09.041Z,99.36
2019-05-12T01:48:09.497Z,98.95
2019-05-12T01:49:09.021Z,99.46
2019-05-12T01:50:09.365Z,98.90
2019-05-12T01:51:09.010Z,98.95
2019-05-12T01:52:08.978Z,98.85
2019-05-12T01:53:09.038Z,98.65
2019-05-12T01:54:14.685Z,98.74
2019-05-12T01:55:09.937Z,98.54
2019-05-12T01:56:08.933Z,98.95
2019-05-12T01:57:08.956Z,98.65
2019-05-12T01:58:21.844Z,98.54
2019-05-12T01:59:08.895Z,98.74
2019-05-12T02:00:08.923Z,98.85
2019-05-12T02:01:08.877Z,98.85
2019-05-12T02:02:08.863Z,98.74
2019-05-12T02:03:09.485Z,98.65
2019-05-12T02:04:08.839Z,98.85
2019-05-12T02:05:08.983Z,98.85
2019-05-12T02:06:08.834Z,98.85
2019-05-12T02:07:08.811Z,98.85
2019-05-12T02:08:09.728Z,98.44
2019-05-12T02:09:08.790Z,98.44
2019-05-12T02:10:09.442Z,98.85
2019-05-12T02:11:08.771Z,98.74
2019-05-12T02:12:08.758Z,98.85
2019-05-12T02:13:08.751Z,98.33
2019-05-12T02:14:09.401Z,98.44
2019-05-12T02:15:08.722Z,98.65
2019-05-12T02:16:08.716Z,98.74
2019-05-12T02:17:08.859Z,98.44
2019-05-12T02:18:09.273Z,98.24
2019-05-12T02:19:09.211Z,98.74
2019-05-12T02:20:08.688Z,98.33
2019-05-12T02:21:08.653Z,98.95
2019-05-12T02:22:08.730Z,98.85
2019-05-12T02:23:09.212Z,98.44
2019-05-12T02:24:23.312Z,98.65
2019-05-12T02:25:09.644Z,98.44
2019-05-12T02:26:08.597Z,98.85
2019-05-12T02:27:08.590Z,98.65
2019-05-12T02:28:09.467Z,98.85
2019-05-12T02:29:18.910Z,98.44
2019-05-12T02:30:09.832Z,99.05
2019-05-12T02:31:09.447Z,99.15
2019-05-12T02:32:08.536Z,98.33
2019-05-12T02:33:08.526Z,98.65
2019-05-12T02:34:08.576Z,98.44
2019-05-12T02:35:08.509Z,98.44
2019-05-12T02:36:08.523Z,98.44
2019-05-12T02:37:08.477Z,98.24
2019-05-12T02:38:08.507Z,98.13
2019-05-12T02:39:08.481Z,98.44
2019-05-12T02:40:08.452Z,98.44
2019-05-12T02:41:08.432Z,98.74
2019-05-12T02:42:08.446Z,99.10
2019-05-12T02:43:08.440Z,98.85
2019-05-12T02:44:08.406Z,98.74
2019-05-12T02:45:08.386Z,98.13
2019-05-12T02:46:08.380Z,98.24
2019-05-12T02:47:08.436Z,98.24
2019-05-12T02:48:08.359Z,98.74
2019-05-12T02:49:08.341Z,98.38
2019-05-12T02:50:08.331Z,98.44
2019-05-12T02:51:08.333Z,98.69
2019-05-12T02:52:08.318Z,98.38
2019-05-12T02:53:08.368Z,97.97
2019-05-12T02:54:08.290Z,98.38
2019-05-12T02:55:08.287Z,98.69
2019-05-12T02:56:08.265Z,98.28
2019-05-12T02:57:08.255Z,98.28
2019-05-12T02:58:08.278Z,98.49
2019-05-12T02:59:08.269Z,98.07
2019-05-12T03:00:24.020Z,98.28
2019-05-12T03:01:08.214Z,98.28
2019-05-12T03:02:08.198Z,98.07
2019-05-12T03:03:08.300Z,98.07
2019-05-12T03:04:08.194Z,98.18
2019-05-12T03:05:08.170Z,98.28
2019-05-12T03:06:08.206Z,98.07
2019-05-12T03:07:09.005Z,98.49
2019-05-12T03:08:08.148Z,97.66
2019-05-12T03:09:08.131Z,97.97
2019-05-12T03:10:08.124Z,97.25
2019-05-12T03:11:08.110Z,97.25
2019-05-12T03:12:08.102Z,97.15
2019-05-12T03:13:08.082Z,97.25
2019-05-12T03:14:08.113Z,97.25
2019-05-12T03:15:08.078Z,97.25
2019-05-12T03:16:08.049Z,97.25
2019-05-12T03:17:08.034Z,97.25
2019-05-12T03:18:08.024Z,97.25
2019-05-12T03:19:08.025Z,97.05
2019-05-12T03:20:08.025Z,97.97
2019-05-12T03:21:08.001Z,97.97
2019-05-12T03:22:07.982Z,97.97
2019-05-12T03:23:07.971Z,97.36
2019-05-12T03:24:07.952Z,97.25
2019-05-12T03:25:19.929Z,97.25
2019-05-12T03:26:08.945Z,97.36
2019-05-12T03:27:07.934Z,97.25
2019-05-12T03:28:09.389Z,97.15
2019-05-12T03:29:07.900Z,97.36
2019-05-12T03:30:11.678Z,96.74
2019-05-12T03:31:29.872Z,96.74
2019-05-12T03:32:09.109Z,96.13
2019-05-12T03:33:10.534Z,96.33
2019-05-12T03:34:10.846Z,96.23
2019-05-12T03:35:09.069Z,96.23
2019-05-12T03:36:09.855Z,96.23
2019-05-12T03:37:08.518Z,96.23
2019-05-12T03:38:07.819Z,96.64
2019-05-12T03:39:07.788Z,96.44
2019-05-12T03:40:07.786Z,96.44
2019-05-12T03:41:07.762Z,96.44
2019-05-12T03:42:07.749Z,96.95
2019-05-12T03:43:07.756Z,96.95
2019-05-12T03:44:07.739Z,97.15
2019-05-12T03:45:07.723Z,97.15
2019-05-12T03:46:07.707Z,97.05
2019-05-12T03:47:07.695Z,97.56
2019-05-12T03:48:07.705Z,97.36
2019-05-12T03:49:07.678Z,97.36
2019-05-12T03:50:07.662Z,96.54
2019-05-12T03:51:07.711Z,96.64
2019-05-12T03:52:08.522Z,96.64
2019-05-12T03:53:10.833Z,96.64
2019-05-12T03:54:07.623Z,96.74
2019-05-12T03:55:25.979Z,96.54
2019-05-12T03:56:08.594Z,96.54
2019-05-12T03:57:07.581Z,96.64
2019-05-12T03:58:07.566Z,96.54
2019-05-12T03:59:07.603Z,96.23
2019-05-12T04:00:07.654Z,96.54
2019-05-12T04:01:07.560Z,96.64
2019-05-12T04:02:18.580Z,96.54
2019-05-12T04:03:07.512Z,96.74
2019-05-12T04:04:07.520Z,96.54
2019-05-12T04:05:07.516Z,96.23
2019-05-12T04:06:07.479Z,96.23
2019-05-12T04:07:07.469Z,96.33
2019-05-12T04:08:07.476Z,96.13
2019-05-12T04:09:07.479Z,96.84
2019-05-12T04:10:07.442Z,96.74
2019-05-12T04:11:07.425Z,96.84
2019-05-12T04:12:07.416Z,97.15
2019-05-12T04:13:07.404Z,97.36
2019-05-12T04:14:07.393Z,97.15
2019-05-12T04:15:07.429Z,97.15
2019-05-12T04:16:07.372Z,97.25
2019-05-12T04:17:07.357Z,96.95
2019-05-12T04:18:07.351Z,97.15
2019-05-12T04:19:07.333Z,97.25
2019-05-12T04:20:07.327Z,97.25
2019-05-12T04:21:07.348Z,97.15
2019-05-12T04:22:07.296Z,97.05
2019-05-12T04:23:07.346Z,97.25
2019-05-12T04:24:07.275Z,97.15
2019-05-12T04:25:07.256Z,97.46
2019-05-12T04:26:12.286Z,97.25
2019-05-12T04:27:08.248Z,97.25
2019-05-12T04:28:07.230Z,96.95
2019-05-12T04:29:07.237Z,97.05
2019-05-12T04:30:07.205Z,97.05
2019-05-12T04:31:07.193Z,97.25
2019-05-12T04:32:07.228Z,97.11
2019-05-12T04:33:19.605Z,96.95
2019-05-12T04:34:07.164Z,96.64
2019-05-12T04:35:07.146Z,96.23
2019-05-12T04:36:07.201Z,96.23
2019-05-12T04:37:07.148Z,96.44
2019-05-12T04:38:07.128Z,96.13
2019-05-12T04:39:07.114Z,96.49
2019-05-12T04:40:07.089Z,96.54
2019-05-12T04:41:07.079Z,96.23
2019-05-12T04:42:07.079Z,96.08
2019-05-12T04:43:07.093Z,96.23
2019-05-12T04:44:07.057Z,96.33
2019-05-12T04:45:07.046Z,96.44
2019-05-12T04:46:07.020Z,95.62
2019-05-12T04:47:07.019Z,95.62
2019-05-12T04:48:06.998Z,96.08
2019-05-12T04:49:07.033Z,95.47
2019-05-12T04:50:06.973Z,95.51
2019-05-12T04:51:06.967Z,95.92
2019-05-12T04:52:06.952Z,96.33
2019-05-12T04:53:07.100Z,95.92
2019-05-12T04:54:06.930Z,95.92
2019-05-12T04:55:06.969Z,95.92
2019-05-12T04:56:15.506Z,95.51
2019-05-12T04:57:07.901Z,95.46
2019-05-12T04:58:06.973Z,95.56
2019-05-12T04:59:06.930Z,96.17
2019-05-12T05:00:06.904Z,95.97
2019-05-12T05:01:06.910Z,96.17
2019-05-12T05:02:06.843Z,96.38
2019-05-12T05:03:06.830Z,96.58
2019-05-12T05:04:17.178Z,96.28
2019-05-12T05:05:06.834Z,96.38
2019-05-12T05:06:06.801Z,96.38
2019-05-12T05:07:06.823Z,95.66
2019-05-12T05:08:06.771Z,95.66
2019-05-12T05:09:06.766Z,95.97
2019-05-12T05:10:06.757Z,95.66
2019-05-12T05:11:06.739Z,95.92
2019-05-12T05:12:06.724Z,95.87
2019-05-12T05:13:07.161Z,95.51
2019-05-12T05:14:06.699Z,95.62
2019-05-12T05:15:06.704Z,95.51
2019-05-12T05:16:06.689Z,96.38
2019-05-12T05:17:06.685Z,96.03
2019-05-12T05:18:07.068Z,95.21
2019-05-12T05:19:06.656Z,94.80
2019-05-12T05:20:06.643Z,94.80
2019-05-12T05:21:06.625Z,95.62
2019-05-12T05:22:06.616Z,95.31
2019-05-12T05:23:06.599Z,95.00
2019-05-12T05:24:06.604Z,95.21
2019-05-12T05:25:06.581Z,95.31
2019-05-12T05:26:19.847Z,95.21
2019-05-12T05:27:07.551Z,94.70
2019-05-12T05:28:06.544Z,94.49
2019-05-12T05:29:06.564Z,94.90
2019-05-12T05:30:06.542Z,94.90
2019-05-12T05:31:06.514Z,95.21
2019-05-12T05:32:06.502Z,95.31
2019-05-12T05:33:06.489Z,95.17
2019-05-12T05:34:06.476Z,94.96
2019-05-12T05:35:19.155Z,94.45
2019-05-12T05:36:15.215Z,94.55
2019-05-12T05:37:07.443Z,94.65
2019-05-12T05:38:10.872Z,93.63
2019-05-12T05:39:07.430Z,95.06
2019-05-12T05:40:06.431Z,94.65
2019-05-12T05:41:10.470Z,93.63
2019-05-12T05:42:06.389Z,94.49
2019-05-12T05:43:18.187Z,94.75
2019-05-12T05:44:07.367Z,93.73
2019-05-12T05:45:10.527Z,93.43
2019-05-12T05:46:08.114Z,93.93
2019-05-12T05:47:06.328Z,94.60
2019-05-12T05:48:10.002Z,93.84
2019-05-12T05:49:06.315Z,94.10
2019-05-12T05:50:06.300Z,93.43
2019-05-12T05:51:09.105Z,94.24
2019-05-12T05:52:06.277Z,93.93
2019-05-12T05:53:09.295Z,93.93
2019-05-12T05:54:07.249Z,94.04
2019-05-12T05:55:14.574Z,93.79
2019-05-12T05:56:07.258Z,93.18
2019-05-12T05:57:06.373Z,93.69
2019-05-12T05:58:10.272Z,93.38
2019-05-12T05:59:06.201Z,93.69
2019-05-12T06:00:15.978Z,93.07
2019-05-12T06:01:08.331Z,92.87
2019-05-12T06:02:06.185Z,93.07
2019-05-12T06:03:06.280Z,93.07
2019-05-12T06:04:08.667Z,93.03
2019-05-12T06:05:06.129Z,93.24
2019-05-12T06:06:10.855Z,92.68
2019-05-12T06:10:40.456Z,91.66
2019-05-12T06:11:39.021Z,91.35
2019-05-12T06:12:40.427Z,91.56
2019-05-12T06:13:40.331Z,91.39
2019-05-12T06:14:40.833Z,92.21
2019-05-12T06:15:40.904Z,92.52
2019-05-12T06:16:38.942Z,92.21
2019-05-12T06:17:38.919Z,92.15
2019-05-12T06:18:38.919Z,92.46
2019-05-12T06:19:38.948Z,92.62
2019-05-12T06:20:38.924Z,92.27
2019-05-12T06:21:38.879Z,91.60
2019-05-12T06:22:38.868Z,91.91
2019-05-12T06:23:39.285Z,91.66
2019-05-12T06:24:38.883Z,91.56
2019-05-12T06:25:47.372Z,91.35
2019-05-12T06:26:52.882Z,91.56
2019-05-12T06:27:39.807Z,91.76
2019-05-12T06:28:41.135Z,91.76
2019-05-12T06:29:38.793Z,92.17
2019-05-12T06:30:44.458Z,92.27
2019-05-12T06:31:39.767Z,92.62
2019-05-12T06:32:41.163Z,92.21
2019-05-12T06:33:39.740Z,91.91
2019-05-12T06:34:38.727Z,92.68
2019-05-12T06:35:42.250Z,91.76
2019-05-12T06:36:39.710Z,91.15
2019-05-12T06:37:38.708Z,91.15
2019-05-12T06:38:40.488Z,90.64
2019-05-12T06:39:38.669Z,91.35
2019-05-12T06:40:45.747Z,91.15
2019-05-12T06:41:38.652Z,91.76
2019-05-12T06:42:38.644Z,91.96
2019-05-12T06:43:42.387Z,91.35
2019-05-12T06:44:39.617Z,91.35
2019-05-12T06:45:42.465Z,90.90
2019-05-12T06:46:39.639Z,90.80
2019-05-12T06:47:39.315Z,89.98
2019-05-12T06:48:42.467Z,91.16
2019-05-12T06:49:39.584Z,90.39
2019-05-12T06:50:39.278Z,91.20
2019-05-12T06:51:38.572Z,91.11
2019-05-12T06:52:43.253Z,89.73
2019-05-12T06:53:39.515Z,90.00
2019-05-12T06:54:44.609Z,89.32
2019-05-12T06:55:40.180Z,89.12
2019-05-12T06:56:38.542Z,90.61
2019-05-12T06:57:40.034Z,89.39
2019-05-12T06:58:39.546Z,88.78
2019-05-12T06:59:41.938Z,89.28
2019-05-12T07:00:39.434Z,89.55
2019-05-12T07:01:38.428Z,88.18
2019-05-12T07:02:49.031Z,86.82
2019-05-12T07:03:39.413Z,86.51
2019-05-12T07:04:41.252Z,86.16
2019-05-12T07:05:42.481Z,85.31
2019-05-12T07:06:39.370Z,86.53
2019-05-12T07:07:42.005Z,84.66
2019-05-12T07:08:39.353Z,84.97
2019-05-12T07:09:50.118Z,84.70
2019-05-12T07:10:43.634Z,85.17
2019-05-12T07:12:58.917Z,84.86
2019-05-12T07:14:02.210Z,84.25
2019-05-12T07:14:57.115Z,85.17
2019-05-12T07:15:54.298Z,84.72
2019-05-12T07:16:55.331Z,83.81
2019-05-12T07:17:55.721Z,83.81
2019-05-12T07:18:54.047Z,83.20
2019-05-12T07:19:54.654Z,83.03
2019-05-12T07:20:53.741Z,82.99
2019-05-12T07:21:58.212Z,82.68
2019-05-12T07:22:54.862Z,83.56
2019-05-12T07:23:53.462Z,82.45
2019-05-12T07:24:52.806Z,81.49
2019-05-12T07:25:51.726Z,79.66
2019-05-12T07:26:54.759Z,80.88
2019-05-12T07:27:58.708Z,82.14
2019-05-12T07:28:54.069Z,82.65
2019-05-12T07:29:54.094Z,81.70
2019-05-12T07:30:51.709Z,82.67
2019-05-12T07:31:53.689Z,80.13
2019-05-12T07:32:59.351Z,80.78
2019-05-12T07:33:54.212Z,80.41
2019-05-12T07:34:51.627Z,81.37
2019-05-12T07:35:53.433Z,81.67
2019-05-12T07:36:53.824Z,81.53
2019-05-12T07:37:53.451Z,82.54
2019-05-12T07:38:55.807Z,81.87
2019-05-12T07:39:53.837Z,81.43
2019-05-12T07:40:53.558Z,80.82
2019-05-12T07:41:52.650Z,81.46
2019-05-12T07:42:58.830Z,82.07
2019-05-12T07:43:56.761Z,81.84
2019-05-12T07:44:54.378Z,81.16
2019-05-12T07:45:56.652Z,81.16
2019-05-12T07:46:54.071Z,81.67
2019-05-12T07:47:51.483Z,81.37
2019-05-12T07:48:51.492Z,81.60
2019-05-12T07:49:53.625Z,81.65
2019-05-12T07:50:57.785Z,83.01
2019-05-12T07:51:54.210Z,82.94
2019-05-12T07:52:51.424Z,84.17
2019-05-12T07:53:57.163Z,83.65
2019-05-12T07:54:55.748Z,84.41
2019-05-12T07:55:53.253Z,85.02
2019-05-12T07:56:53.824Z,83.96
2019-05-12T07:57:56.003Z,83.51
2019-05-12T07:58:56.484Z,81.44
2019-05-12T07:59:51.355Z,83.07
2019-05-12T08:00:53.979Z,82.62
2019-05-12T08:01:54.912Z,81.85
2019-05-12T08:02:53.539Z,80.38
2019-05-12T08:03:59.340Z,82.21
2019-05-12T08:04:54.164Z,80.38
2019-05-12T08:05:56.393Z,80.35
2019-05-12T08:06:53.853Z,79.19
2019-05-12T08:07:53.447Z,79.84
2019-05-12T08:08:56.583Z,80.15
2019-05-12T08:09:53.642Z,79.02
2019-05-12T08:10:53.533Z,80.35
2019-05-12T08:11:53.897Z,79.84
2019-05-12T08:12:57.421Z,79.88
2019-05-12T08:15:09.638Z,79.50
2019-05-12T08:16:05.949Z,80.77
2019-05-12T08:17:11.069Z,80.56
2019-05-12T08:18:08.060Z,81.68
2019-05-12T08:19:08.369Z,81.38
2019-05-12T08:20:05.906Z,81.88
2019-05-12T08:21:05.939Z,81.38
2019-05-12T08:22:05.887Z,80.97
2019-05-12T08:23:10.319Z,80.66
2019-05-12T08:24:05.859Z,80.66
2019-05-12T08:25:05.851Z,80.29
2019-05-12T08:26:11.958Z,80.46
2019-05-12T08:27:06.853Z,80.80
2019-05-12T08:28:14.844Z,80.33
2019-05-12T08:29:10.292Z,80.64
2019-05-12T08:30:06.793Z,80.57
2019-05-12T08:31:05.776Z,81.29
2019-05-12T08:32:09.822Z,81.90
2019-05-12T08:33:09.646Z,81.43
2019-05-12T08:34:05.748Z,82.55
2019-05-12T08:35:05.743Z,82.35
2019-05-12T08:36:11.523Z,82.86
2019-05-12T08:37:06.711Z,81.32
2019-05-12T08:38:05.715Z,81.39
2019-05-12T08:39:11.336Z,82.51
2019-05-12T08:40:07.682Z,82.17
2019-05-12T08:41:05.679Z,81.80
2019-05-12T08:42:05.667Z,82.75
2019-05-12T08:43:10.326Z,82.92
2019-05-12T08:44:06.632Z,82.92
2019-05-12T08:45:25.060Z,83.63
2019-05-12T08:46:11.922Z,83.98
2019-05-12T08:47:06.598Z,83.98
2019-05-12T08:48:10.141Z,85.24
2019-05-12T08:49:06.583Z,85.21
2019-05-12T08:50:05.566Z,85.04
2019-05-12T08:51:13.942Z,85.14
2019-05-12T08:52:06.546Z,84.77
2019-05-12T08:53:05.531Z,85.28
2019-05-12T08:54:08.109Z,84.91
2019-05-12T08:55:05.588Z,85.22
2019-05-12T08:56:13.372Z,84.91
2019-05-12T08:57:06.483Z,84.88
2019-05-12T08:58:05.477Z,83.98
2019-05-12T08:59:09.728Z,82.65
2019-05-12T09:00:08.556Z,83.02
2019-05-12T09:01:05.444Z,82.04
2019-05-12T09:02:07.430Z,80.71
2019-05-12T09:03:06.420Z,81.43
2019-05-12T09:04:09.231Z,81.59
2019-05-12T09:05:06.398Z,80.47
2019-05-12T09:06:09.319Z,80.68
2019-05-12T09:07:06.385Z,80.78
2019-05-12T09:08:05.366Z,80.20
2019-05-12T09:09:05.375Z,80.47
2019-05-12T09:10:05.341Z,80.68
2019-05-12T09:11:06.171Z,80.13
2019-05-12T09:12:05.372Z,80.47
2019-05-12T09:13:05.308Z,79.52
2019-05-12T09:14:05.948Z,79.62
2019-05-12T09:15:08.061Z,78.77
2019-05-12T09:16:18.450Z,78.32
2019-05-12T09:17:13.891Z,78.26
2019-05-12T09:18:05.267Z,78.97
2019-05-12T09:19:10.149Z,79.27
2019-05-12T09:20:08.365Z,78.87
2019-05-12T09:21:05.216Z,78.70
2019-05-12T09:22:16.285Z,78.36
2019-05-12T09:23:06.206Z,77.64
2019-05-12T09:24:15.595Z,78.05
2019-05-12T09:25:08.353Z,78.19
2019-05-12T09:26:05.168Z,78.39
2019-05-12T09:27:08.817Z,78.97
2019-05-12T09:28:05.140Z,78.87
2019-05-12T09:29:07.419Z,79.14
2019-05-12T09:30:09.527Z,78.80
2019-05-12T09:31:05.115Z,78.94
2019-05-12T09:32:09.358Z,78.91
2019-05-12T09:33:05.091Z,77.98
2019-05-12T09:34:11.475Z,78.80
2019-05-12T09:35:06.075Z,79.21
2019-05-12T09:36:05.048Z,79.11
2019-05-12T09:37:05.040Z,78.36
2019-05-12T09:38:06.221Z,79.11
2019-05-12T09:39:05.853Z,78.70
2019-05-12T09:40:05.045Z,79.00
2019-05-12T09:41:05.416Z,80.13
2019-05-12T09:42:04.981Z,79.00
2019-05-12T09:43:09.239Z,79.00
2019-05-12T09:44:05.961Z,78.80
2019-05-12T09:45:08.616Z,77.78
2019-05-12T09:46:05.950Z,77.68
2019-05-12T09:47:07.609Z,78.09
2019-05-12T09:48:09.093Z,77.34
2019-05-12T09:49:04.906Z,76.93
2019-05-12T09:50:09.769Z,76.62
2019-05-12T09:51:08.026Z,77.03
2019-05-12T09:52:04.868Z,77.00
2019-05-12T09:53:09.310Z,77.03
2019-05-12T09:54:05.846Z,77.61
2019-05-12T09:55:15.301Z,77.26
2019-05-12T09:56:04.828Z,76.25
2019-05-12T09:57:04.810Z,75.43
2019-05-12T09:58:04.808Z,76.15
2019-05-12T09:59:17.265Z,76.04
2019-05-12T10:00:05.790Z,76.90
2019-05-12T10:01:04.770Z,76.49
2019-05-12T10:02:04.758Z,76.18
2019-05-12T10:03:08.099Z,76.69
2019-05-12T10:04:04.736Z,76.49
2019-05-12T10:05:04.729Z,77.95
2019-05-12T10:06:04.713Z,76.62
2019-05-12T10:07:04.711Z,77.00
2019-05-12T10:08:04.910Z,76.18
2019-05-12T10:09:08.818Z,75.47
2019-05-12T10:10:05.690Z,76.93
2019-05-12T10:11:04.661Z,77.64
2019-05-12T10:12:05.553Z,76.62
2019-05-12T10:13:05.050Z,77.85
2019-05-12T10:14:06.492Z,76.49
2019-05-12T10:15:05.626Z,76.39
2019-05-12T10:16:08.681Z,77.17
2019-05-12T10:17:04.586Z,77.58
2019-05-12T10:18:10.790Z,77.17
2019-05-12T10:19:05.602Z,77.37
2019-05-12T10:20:04.552Z,78.39
2019-05-12T10:21:04.544Z,77.00
2019-05-12T10:22:04.535Z,75.47
2019-05-12T10:23:04.725Z,75.16
2019-05-12T10:24:05.127Z,76.62
2019-05-12T10:25:04.517Z,77.00
2019-05-12T10:26:14.997Z,77.68
2019-05-12T10:27:04.472Z,76.53
2019-05-12T10:28:11.350Z,77.03
2019-05-12T10:29:16.353Z,76.53
2019-05-12T10:30:11.866Z,76.93
2019-05-12T10:31:05.427Z,76.53
2019-05-12T10:32:04.429Z,75.92
2019-05-12T10:33:04.409Z,76.76
2019-05-12T10:34:04.400Z,76.93
2019-05-12T10:35:04.382Z,76.66
2019-05-12T10:36:08.285Z,76.42
2019-05-12T10:37:04.367Z,75.40
2019-05-12T10:38:09.177Z,75.71
2019-05-12T10:39:05.344Z,75.64
2019-05-12T10:40:04.331Z,76.15
2019-05-12T10:41:04.494Z,76.83
2019-05-12T10:42:04.343Z,76.22
2019-05-12T10:43:04.839Z,75.20
2019-05-12T10:44:04.305Z,76.59
2019-05-12T10:45:04.425Z,77.00
2019-05-12T10:46:04.382Z,75.47
2019-05-12T10:47:04.597Z,75.47
2019-05-12T10:48:04.245Z,75.88
2019-05-12T10:49:04.235Z,74.99
2019-05-12T10:50:04.220Z,75.30
2019-05-12T10:51:04.208Z,75.37
2019-05-12T10:52:04.216Z,75.40
2019-05-12T10:53:04.750Z,75.40
2019-05-12T10:54:11.820Z,75.51
2019-05-12T10:55:05.164Z,75.67
2019-05-12T10:56:04.157Z,75.60
2019-05-12T10:57:15.379Z,76.01
2019-05-12T10:58:06.885Z,75.06
2019-05-12T10:59:04.376Z,74.86
2019-05-12T11:00:04.325Z,74.62
2019-05-12T11:01:08.311Z,74.32
2019-05-12T11:02:04.088Z,75.06
2019-05-12T11:03:10.235Z,75.13
2019-05-12T11:04:05.069Z,74.82
2019-05-12T11:05:04.059Z,74.76
2019-05-12T11:06:07.459Z,75.74
2019-05-12T11:07:04.654Z,74.32
2019-05-12T11:08:10.917Z,74.93
2019-05-12T11:09:05.017Z,75.06
2019-05-12T11:10:15.356Z,74.82
2019-05-12T11:11:04.985Z,74.32
2019-05-12T11:12:03.974Z,74.82
2019-05-12T11:13:08.445Z,74.52
2019-05-12T11:14:04.985Z,74.65
2019-05-12T11:15:06.702Z,75.27
2019-05-12T11:16:03.978Z,74.65
2019-05-12T11:17:07.689Z,74.99
2019-05-12T11:18:04.915Z,75.71
2019-05-12T11:19:06.459Z,76.46
2019-05-12T11:20:04.938Z,76.76
2019-05-12T11:21:03.876Z,77.07
2019-05-12T11:22:03.909Z,77.11
2019-05-12T11:23:03.866Z,77.51
2019-05-12T11:24:03.961Z,77.72
2019-05-12T11:25:04.412Z,77.31
2019-05-12T11:26:04.053Z,77.51
2019-05-12T11:27:04.207Z,77.62
2019-05-12T11:28:16.577Z,77.82
2019-05-12T11:29:03.897Z,77.92
2019-05-12T11:30:04.387Z,78.09
2019-05-12T11:31:03.786Z,76.28
2019-05-12T11:32:03.761Z,75.27
2019-05-12T11:33:04.526Z,76.79
2019-05-12T11:34:04.818Z,76.53
2019-05-12T11:35:04.181Z,76.62
2019-05-12T11:36:04.423Z,76.42
2019-05-12T11:37:03.776Z,77.14
2019-05-12T11:38:04.410Z,76.73
2019-05-12T11:39:03.732Z,76.53
2019-05-12T11:40:04.335Z,76.73
2019-05-12T11:41:04.218Z,76.25
2019-05-12T11:42:04.232Z,77.27
2019-05-12T11:43:04.472Z,77.14
2019-05-12T11:44:04.050Z,76.79
2019-05-12T11:45:03.602Z,75.98
2019-05-12T11:46:03.595Z,76.08
2019-05-12T11:47:03.872Z,76.42
2019-05-12T11:48:08.410Z,76.42
2019-05-12T11:49:04.566Z,76.62
2019-05-12T11:50:08.036Z,77.14
2019-05-12T11:51:04.544Z,76.66
2019-05-12T11:52:07.643Z,76.66
2019-05-12T11:53:04.569Z,76.97
2019-05-12T11:54:09.003Z,77.27
2019-05-12T11:55:04.498Z,77.24
2019-05-12T11:56:07.548Z,76.79
2019-05-12T11:57:04.473Z,76.69
2019-05-12T11:58:06.857Z,76.79
2019-05-12T12:00:17.868Z,75.33
2019-05-12T12:01:17.852Z,75.67
2019-05-12T12:02:20.246Z,75.37
2019-05-12T12:03:18.827Z,75.13
2019-05-12T12:04:17.825Z,75.64
2019-05-12T12:05:17.821Z,74.93
2019-05-12T12:06:17.805Z,75.54
2019-05-12T12:07:17.789Z,75.43
2019-05-12T12:08:17.781Z,75.13
2019-05-12T12:09:18.996Z,75.88
2019-05-12T12:10:17.797Z,75.78
2019-05-12T12:11:24.232Z,75.16
2019-05-12T12:12:18.737Z,75.67
2019-05-12T12:13:19.257Z,75.78
2019-05-12T12:14:18.709Z,76.69
2019-05-12T12:15:20.509Z,76.25
2019-05-12T12:17:31.270Z,76.15
2019-05-12T12:18:28.446Z,76.79
2019-05-12T12:19:34.934Z,76.79
2019-05-12T12:20:28.429Z,76.69
2019-05-12T12:21:27.422Z,76.90
2019-05-12T12:22:29.764Z,76.90
2019-05-12T12:23:27.439Z,75.78
2019-05-12T12:24:31.430Z,76.56
2019-05-12T12:25:27.405Z,75.43
2019-05-12T12:26:30.272Z,75.30
2019-05-12T12:27:27.357Z,75.02
2019-05-12T12:28:27.346Z,74.89
2019-05-12T12:29:27.346Z,74.48
2019-05-12T12:30:27.321Z,74.32
2019-05-12T12:31:29.616Z,75.47
2019-05-12T12:32:28.295Z,76.15
2019-05-12T12:33:30.896Z,75.95
2019-05-12T12:34:30.276Z,75.84
2019-05-12T12:35:27.263Z,75.16
2019-05-12T12:36:27.253Z,75.33
2019-05-12T12:37:27.245Z,75.43
2019-05-12T12:38:27.233Z,75.47
2019-05-12T12:39:27.228Z,75.54
2019-05-12T12:40:28.805Z,75.37
2019-05-12T12:41:27.199Z,75.64
2019-05-12T12:42:30.440Z,75.43
2019-05-12T12:43:28.180Z,75.64
2019-05-12T12:44:27.181Z,76.04
2019-05-12T12:45:30.305Z,75.33
2019-05-12T12:46:28.147Z,76.39
2019-05-12T12:47:38.022Z,75.95
2019-05-12T12:48:29.699Z,75.43
2019-05-12T12:49:29.321Z,75.40
2019-05-12T12:50:30.536Z,75.81
2019-05-12T12:51:27.092Z,74.76
2019-05-12T12:52:27.078Z,75.06
2019-05-12T12:53:27.594Z,74.72
2019-05-12T12:54:27.065Z,74.45
2019-05-12T12:55:27.044Z,73.80
2019-05-12T12:56:30.028Z,74.35
2019-05-12T12:57:27.042Z,74.11
2019-05-12T12:58:31.371Z,74.76
2019-05-12T12:59:28.005Z,74.62
2019-05-12T13:00:32.131Z,74.11